OYYOR EKAH-EKOD
Flight info
| Callsign | OYYOR |
|---|---|
| Flight time | 0h 57m |
| Altitude | 4500 |
| Route | KNEBEL AARHUS HORSENS VEJLE FREDERICIA VISSENBJERG |
| Aircraft | C172/L-SFG/C |
Departure
| Time | 2026-05-08 07:01 |
|---|---|
| Airport | Aarhus Airport (EKAH) |
Arrival
| Time | 2026-05-08 07:58 |
|---|---|
| Airport | Odense Hans Christian Andersen Airport (EKOD) |
| Time | Latitude | Longitude | Altitude | Speed | Heading |
|---|---|---|---|---|---|
| 2026-05-08 06:46 | 56.30875 | 10.62196 | 73 ft | 0 kts | 325° |
| 2026-05-08 06:53 | 56.30881 | 10.62187 | 73 ft | 3 kts | 320° |
| 2026-05-08 06:53 | 56.30891 | 10.62130 | 73 ft | 6 kts | 275° |
| 2026-05-08 06:53 | 56.30869 | 10.62086 | 74 ft | 6 kts | 189° |
| 2026-05-08 06:54 | 56.30821 | 10.62069 | 74 ft | 7 kts | 191° |
| 2026-05-08 06:54 | 56.30763 | 10.62068 | 74 ft | 9 kts | 157° |
| 2026-05-08 06:54 | 56.30734 | 10.62176 | 74 ft | 10 kts | 100° |
| 2026-05-08 06:54 | 56.30706 | 10.62308 | 74 ft | 12 kts | 117° |
| 2026-05-08 06:55 | 56.30655 | 10.62417 | 73 ft | 11 kts | 189° |
| 2026-05-08 06:55 | 56.30592 | 10.62319 | 74 ft | 12 kts | 221° |
| 2026-05-08 06:55 | 56.30523 | 10.62213 | 74 ft | 13 kts | 220° |
| 2026-05-08 06:55 | 56.30516 | 10.62054 | 75 ft | 14 kts | 280° |
| 2026-05-08 06:56 | 56.30534 | 10.61877 | 76 ft | 14 kts | 282° |
| 2026-05-08 06:56 | 56.30552 | 10.61690 | 76 ft | 15 kts | 282° |
| 2026-05-08 06:56 | 56.30573 | 10.61490 | 76 ft | 16 kts | 280° |
| 2026-05-08 06:56 | 56.30593 | 10.61282 | 76 ft | 17 kts | 275° |
| 2026-05-08 06:57 | 56.30615 | 10.61064 | 76 ft | 18 kts | 277° |
| 2026-05-08 06:57 | 56.30640 | 10.60835 | 76 ft | 19 kts | 279° |
| 2026-05-08 06:57 | 56.30593 | 10.60715 | 76 ft | 14 kts | 191° |
| 2026-05-08 06:57 | 56.30553 | 10.60702 | 76 ft | 0 kts | 189° |
| 2026-05-08 06:59 | 56.30547 | 10.60701 | 76 ft | 1 kts | 185° |
| 2026-05-08 06:59 | 56.30520 | 10.60693 | 76 ft | 7 kts | 191° |
| 2026-05-08 06:59 | 56.30453 | 10.60714 | 76 ft | 14 kts | 108° |
| 2026-05-08 06:59 | 56.30419 | 10.61073 | 77 ft | 52 kts | 102° |
| 2026-05-08 07:00 | 56.30336 | 10.61874 | 168 ft | 68 kts | 99° |
| 2026-05-08 07:00 | 56.30253 | 10.62748 | 308 ft | 72 kts | 99° |
| 2026-05-08 07:00 | 56.30164 | 10.63637 | 461 ft | 73 kts | 98° |
| 2026-05-08 07:00 | 56.30071 | 10.64595 | 556 ft | 80 kts | 94° |
| 2026-05-08 07:01 | 56.30436 | 10.65283 | 640 ft | 92 kts | 8° |
| 2026-05-08 07:01 | 56.31088 | 10.65447 | 742 ft | 95 kts | 8° |
| 2026-05-08 07:01 | 56.31530 | 10.64722 | 708 ft | 106 kts | 269° |
| 2026-05-08 07:01 | 56.31560 | 10.63431 | 760 ft | 101 kts | 272° |
| 2026-05-08 07:02 | 56.31606 | 10.62180 | 778 ft | 98 kts | 272° |
| 2026-05-08 07:02 | 56.31657 | 10.60929 | 776 ft | 98 kts | 272° |
| 2026-05-08 07:02 | 56.31714 | 10.59681 | 710 ft | 104 kts | 272° |
| 2026-05-08 07:02 | 56.31781 | 10.58405 | 741 ft | 93 kts | 274° |
| 2026-05-08 07:03 | 56.31607 | 10.57434 | 678 ft | 85 kts | 203° |
| 2026-05-08 07:03 | 56.31028 | 10.57310 | 563 ft | 85 kts | 180° |
| 2026-05-08 07:03 | 56.30689 | 10.57993 | 434 ft | 82 kts | 96° |
| 2026-05-08 07:03 | 56.30616 | 10.59017 | 269 ft | 79 kts | 101° |
| 2026-05-08 07:04 | 56.30539 | 10.59873 | 147 ft | 62 kts | 102° |
| 2026-05-08 07:04 | 56.30470 | 10.60544 | 76 ft | 47 kts | 100° |
| 2026-05-08 07:04 | 56.30410 | 10.61159 | 77 ft | 64 kts | 102° |
| 2026-05-08 07:04 | 56.30314 | 10.62064 | 163 ft | 76 kts | 100° |
| 2026-05-08 07:05 | 56.30208 | 10.63028 | 302 ft | 78 kts | 101° |
| 2026-05-08 07:05 | 56.30112 | 10.64049 | 410 ft | 88 kts | 100° |
| 2026-05-08 07:05 | 56.30020 | 10.65146 | 581 ft | 87 kts | 97° |
| 2026-05-08 07:05 | 56.30292 | 10.66007 | 711 ft | 94 kts | 16° |
| 2026-05-08 07:06 | 56.30942 | 10.66298 | 806 ft | 99 kts | 16° |
| 2026-05-08 07:06 | 56.31573 | 10.66187 | 937 ft | 105 kts | 303° |
| 2026-05-08 07:06 | 56.31705 | 10.64843 | 924 ft | 115 kts | 273° |
| 2026-05-08 07:06 | 56.31697 | 10.63447 | 1074 ft | 110 kts | 262° |
| 2026-05-08 07:07 | 56.31668 | 10.62004 | 1021 ft | 121 kts | 267° |
| 2026-05-08 07:07 | 56.31595 | 10.60462 | 939 ft | 125 kts | 265° |
| 2026-05-08 07:07 | 56.31535 | 10.58920 | 809 ft | 118 kts | 265° |
| 2026-05-08 07:07 | 56.31465 | 10.57490 | 662 ft | 106 kts | 250° |
| 2026-05-08 07:08 | 56.30981 | 10.56850 | 634 ft | 80 kts | 184° |
| 2026-05-08 07:08 | 56.30698 | 10.57361 | 543 ft | 62 kts | 83° |
| 2026-05-08 07:08 | 56.30690 | 10.58147 | 392 ft | 63 kts | 98° |
| 2026-05-08 07:08 | 56.30627 | 10.58912 | 266 ft | 60 kts | 98° |
| 2026-05-08 07:09 | 56.30559 | 10.59656 | 141 ft | 59 kts | 103° |
| 2026-05-08 07:09 | 56.30495 | 10.60336 | 79 ft | 51 kts | 99° |
| 2026-05-08 07:09 | 56.30435 | 10.60931 | 77 ft | 50 kts | 103° |
| 2026-05-08 07:09 | 56.30357 | 10.61713 | 77 ft | 78 kts | 102° |
| 2026-05-08 07:10 | 56.30252 | 10.62708 | 186 ft | 80 kts | 100° |
| 2026-05-08 07:10 | 56.30152 | 10.63681 | 341 ft | 78 kts | 101° |
| 2026-05-08 07:10 | 56.30026 | 10.64693 | 459 ft | 86 kts | 100° |
| 2026-05-08 07:10 | 56.29926 | 10.65752 | 643 ft | 85 kts | 101° |
| 2026-05-08 07:11 | 56.29548 | 10.66418 | 820 ft | 88 kts | 169° |
| 2026-05-08 07:11 | 56.28956 | 10.66069 | 956 ft | 94 kts | 204° |
| 2026-05-08 07:11 | 56.28418 | 10.65419 | 1115 ft | 96 kts | 213° |
| 2026-05-08 07:11 | 56.27924 | 10.64618 | 1281 ft | 95 kts | 218° |
| 2026-05-08 07:12 | 56.27393 | 10.63813 | 1373 ft | 101 kts | 214° |
| 2026-05-08 07:12 | 56.26814 | 10.63007 | 1350 ft | 114 kts | 217° |
| 2026-05-08 07:12 | 56.26242 | 10.61955 | 1333 ft | 120 kts | 224° |
| 2026-05-08 07:12 | 56.25694 | 10.60807 | 1331 ft | 122 kts | 229° |
| 2026-05-08 07:13 | 56.25174 | 10.59594 | 1330 ft | 122 kts | 230° |
| 2026-05-08 07:13 | 56.24654 | 10.58373 | 1331 ft | 123 kts | 229° |
| 2026-05-08 07:13 | 56.24148 | 10.57169 | 1327 ft | 117 kts | 230° |
| 2026-05-08 07:13 | 56.23678 | 10.56032 | 1326 ft | 108 kts | 234° |
| 2026-05-08 07:14 | 56.23309 | 10.54880 | 1325 ft | 104 kts | 240° |
| 2026-05-08 07:14 | 56.23064 | 10.53672 | 1330 ft | 102 kts | 252° |
| 2026-05-08 07:14 | 56.22900 | 10.52454 | 1326 ft | 101 kts | 255° |
| 2026-05-08 07:14 | 56.22758 | 10.51230 | 1381 ft | 93 kts | 255° |
| 2026-05-08 07:15 | 56.22646 | 10.50235 | 1588 ft | 70 kts | 254° |
| 2026-05-08 07:15 | 56.22539 | 10.49433 | 1649 ft | 67 kts | 236° |
| 2026-05-08 07:15 | 56.22343 | 10.48558 | 1645 ft | 76 kts | 252° |
| 2026-05-08 07:15 | 56.22248 | 10.47687 | 1749 ft | 67 kts | 255° |
| 2026-05-08 07:16 | 56.22142 | 10.46870 | 1814 ft | 69 kts | 248° |
| 2026-05-08 07:16 | 56.22030 | 10.45932 | 1825 ft | 88 kts | 255° |
| 2026-05-08 07:16 | 56.21906 | 10.44810 | 1912 ft | 94 kts | 256° |
| 2026-05-08 07:16 | 56.21777 | 10.43635 | 1994 ft | 97 kts | 256° |
| 2026-05-08 07:17 | 56.21644 | 10.42425 | 2071 ft | 100 kts | 256° |
| 2026-05-08 07:17 | 56.21509 | 10.41188 | 2147 ft | 102 kts | 257° |
| 2026-05-08 07:17 | 56.21372 | 10.39947 | 2223 ft | 103 kts | 256° |
| 2026-05-08 07:17 | 56.21231 | 10.38682 | 2331 ft | 101 kts | 257° |
| 2026-05-08 07:18 | 56.21099 | 10.37472 | 2453 ft | 98 kts | 256° |
| 2026-05-08 07:18 | 56.20970 | 10.36288 | 2575 ft | 96 kts | 256° |
| 2026-05-08 07:18 | 56.20843 | 10.35129 | 2696 ft | 94 kts | 256° |
| 2026-05-08 07:18 | 56.20717 | 10.33965 | 2820 ft | 93 kts | 256° |
| 2026-05-08 07:19 | 56.20594 | 10.32830 | 2943 ft | 93 kts | 256° |
| 2026-05-08 07:19 | 56.20473 | 10.31704 | 3064 ft | 92 kts | 255° |
| 2026-05-08 07:19 | 56.20353 | 10.30565 | 3188 ft | 92 kts | 256° |
| 2026-05-08 07:19 | 56.20234 | 10.29438 | 3313 ft | 91 kts | 256° |
| 2026-05-08 07:20 | 56.20109 | 10.28266 | 3335 ft | 102 kts | 256° |
| 2026-05-08 07:20 | 56.19968 | 10.26960 | 3328 ft | 109 kts | 256° |
| 2026-05-08 07:20 | 56.19759 | 10.25646 | 3324 ft | 112 kts | 235° |
| 2026-05-08 07:20 | 56.19236 | 10.24615 | 3324 ft | 112 kts | 220° |
| 2026-05-08 07:21 | 56.18663 | 10.23651 | 3321 ft | 113 kts | 219° |
| 2026-05-08 07:21 | 56.18076 | 10.22700 | 3322 ft | 113 kts | 216° |
| 2026-05-08 07:21 | 56.17466 | 10.21808 | 3321 ft | 113 kts | 216° |
| 2026-05-08 07:21 | 56.16851 | 10.20917 | 3320 ft | 113 kts | 216° |
| 2026-05-08 07:22 | 56.16238 | 10.20020 | 3320 ft | 113 kts | 216° |
| 2026-05-08 07:22 | 56.15626 | 10.19120 | 3320 ft | 114 kts | 216° |
| 2026-05-08 07:22 | 56.15012 | 10.18207 | 3321 ft | 114 kts | 216° |
| 2026-05-08 07:22 | 56.14402 | 10.17296 | 3321 ft | 114 kts | 216° |
| 2026-05-08 07:23 | 56.13792 | 10.16384 | 3321 ft | 115 kts | 216° |
| 2026-05-08 07:23 | 56.13171 | 10.15454 | 3321 ft | 115 kts | 216° |
| 2026-05-08 07:23 | 56.12538 | 10.14607 | 3322 ft | 114 kts | 208° |
| 2026-05-08 07:23 | 56.11863 | 10.13855 | 3322 ft | 114 kts | 206° |
| 2026-05-08 07:24 | 56.11174 | 10.13140 | 3321 ft | 114 kts | 206° |
| 2026-05-08 07:24 | 56.10488 | 10.12434 | 3322 ft | 113 kts | 206° |
| 2026-05-08 07:24 | 56.09836 | 10.11764 | 3434 ft | 105 kts | 206° |
| 2026-05-08 07:24 | 56.09226 | 10.11133 | 3550 ft | 99 kts | 206° |
| 2026-05-08 07:25 | 56.08639 | 10.10523 | 3669 ft | 95 kts | 205° |
| 2026-05-08 07:25 | 56.08075 | 10.09930 | 3788 ft | 93 kts | 205° |
| 2026-05-08 07:25 | 56.06979 | 10.08760 | 3970 ft | 96 kts | 206° |
| 2026-05-08 07:26 | 56.06377 | 10.08106 | 3962 ft | 105 kts | 208° |
| 2026-05-08 07:26 | 56.05751 | 10.07390 | 3959 ft | 109 kts | 208° |
| 2026-05-08 07:26 | 56.05100 | 10.06636 | 3958 ft | 112 kts | 208° |
| 2026-05-08 07:26 | 56.04449 | 10.05884 | 3958 ft | 113 kts | 208° |
| 2026-05-08 07:27 | 56.03791 | 10.05125 | 3957 ft | 113 kts | 208° |
| 2026-05-08 07:27 | 56.03124 | 10.04360 | 3956 ft | 113 kts | 208° |
| 2026-05-08 07:27 | 56.02462 | 10.03605 | 3956 ft | 113 kts | 209° |
| 2026-05-08 07:27 | 56.01797 | 10.02851 | 3955 ft | 113 kts | 208° |
| 2026-05-08 07:28 | 56.01125 | 10.02090 | 3954 ft | 113 kts | 209° |
| 2026-05-08 07:28 | 56.00460 | 10.01339 | 3955 ft | 113 kts | 209° |
| 2026-05-08 07:28 | 55.99795 | 10.00587 | 3954 ft | 113 kts | 208° |
| 2026-05-08 07:28 | 55.99131 | 9.99834 | 3954 ft | 113 kts | 209° |
| 2026-05-08 07:29 | 55.98476 | 9.99085 | 3954 ft | 113 kts | 209° |
| 2026-05-08 07:29 | 55.97815 | 9.98321 | 3954 ft | 113 kts | 208° |
| 2026-05-08 07:29 | 55.97155 | 9.97549 | 3955 ft | 114 kts | 209° |
| 2026-05-08 07:29 | 55.96494 | 9.96767 | 3955 ft | 114 kts | 209° |
| 2026-05-08 07:30 | 55.95832 | 9.95981 | 3955 ft | 114 kts | 209° |
| 2026-05-08 07:30 | 55.95168 | 9.95196 | 3954 ft | 114 kts | 209° |
| 2026-05-08 07:30 | 55.94500 | 9.94407 | 3955 ft | 114 kts | 209° |
| 2026-05-08 07:30 | 55.93843 | 9.93639 | 3954 ft | 114 kts | 209° |
| 2026-05-08 07:31 | 55.93175 | 9.92863 | 3955 ft | 114 kts | 209° |
| 2026-05-08 07:31 | 55.92515 | 9.92095 | 3955 ft | 114 kts | 210° |
| 2026-05-08 07:31 | 55.91852 | 9.91323 | 3956 ft | 114 kts | 209° |
| 2026-05-08 07:31 | 55.91189 | 9.90548 | 3954 ft | 114 kts | 209° |
| 2026-05-08 07:32 | 55.90530 | 9.89776 | 3954 ft | 114 kts | 209° |
| 2026-05-08 07:32 | 55.89862 | 9.88985 | 3954 ft | 114 kts | 209° |
| 2026-05-08 07:32 | 55.89197 | 9.88191 | 3955 ft | 114 kts | 209° |
| 2026-05-08 07:32 | 55.88544 | 9.87401 | 3957 ft | 114 kts | 210° |
| 2026-05-08 07:33 | 55.87886 | 9.86604 | 3957 ft | 115 kts | 209° |
| 2026-05-08 07:33 | 55.87190 | 9.85964 | 3959 ft | 111 kts | 192° |
| 2026-05-08 07:33 | 55.86450 | 9.85612 | 3955 ft | 108 kts | 189° |
| 2026-05-08 07:33 | 55.85724 | 9.85287 | 3954 ft | 107 kts | 189° |
| 2026-05-08 07:34 | 55.85003 | 9.84970 | 3953 ft | 106 kts | 188° |
| 2026-05-08 07:34 | 55.84285 | 9.84653 | 3952 ft | 106 kts | 189° |
| 2026-05-08 07:34 | 55.83576 | 9.84302 | 3951 ft | 106 kts | 191° |
| 2026-05-08 07:34 | 55.82870 | 9.83950 | 3950 ft | 105 kts | 191° |
| 2026-05-08 07:35 | 55.82163 | 9.83593 | 3951 ft | 105 kts | 191° |
| 2026-05-08 07:35 | 55.81459 | 9.83237 | 3952 ft | 105 kts | 191° |
| 2026-05-08 07:35 | 55.80754 | 9.82877 | 3953 ft | 105 kts | 191° |
| 2026-05-08 07:35 | 55.80054 | 9.82514 | 3955 ft | 105 kts | 191° |
| 2026-05-08 07:36 | 55.79353 | 9.82151 | 3959 ft | 105 kts | 191° |
| 2026-05-08 07:36 | 55.78650 | 9.81782 | 3962 ft | 105 kts | 191° |
| 2026-05-08 07:36 | 55.77951 | 9.81413 | 3966 ft | 105 kts | 191° |
| 2026-05-08 07:36 | 55.77254 | 9.81044 | 3968 ft | 105 kts | 191° |
| 2026-05-08 07:37 | 55.76548 | 9.80671 | 3967 ft | 105 kts | 191° |
| 2026-05-08 07:37 | 55.75850 | 9.80306 | 3969 ft | 105 kts | 191° |
| 2026-05-08 07:37 | 55.75148 | 9.79946 | 3969 ft | 105 kts | 191° |
| 2026-05-08 07:37 | 55.74437 | 9.79578 | 3968 ft | 105 kts | 191° |
| 2026-05-08 07:38 | 55.73737 | 9.79213 | 3969 ft | 105 kts | 191° |
| 2026-05-08 07:38 | 55.73029 | 9.78834 | 3968 ft | 106 kts | 191° |
| 2026-05-08 07:38 | 55.72324 | 9.78452 | 3966 ft | 106 kts | 191° |
| 2026-05-08 07:38 | 55.71623 | 9.78067 | 3964 ft | 106 kts | 191° |
| 2026-05-08 07:39 | 55.70910 | 9.77676 | 3965 ft | 106 kts | 191° |
| 2026-05-08 07:39 | 55.70213 | 9.77291 | 3962 ft | 106 kts | 191° |
| 2026-05-08 07:39 | 55.69509 | 9.76898 | 3959 ft | 106 kts | 191° |
| 2026-05-08 07:39 | 55.68802 | 9.76505 | 3959 ft | 106 kts | 192° |
| 2026-05-08 07:40 | 55.68097 | 9.76116 | 3960 ft | 105 kts | 192° |
| 2026-05-08 07:40 | 55.67400 | 9.75737 | 3961 ft | 105 kts | 192° |
| 2026-05-08 07:40 | 55.66700 | 9.75359 | 3961 ft | 104 kts | 192° |
| 2026-05-08 07:40 | 55.66009 | 9.74987 | 3960 ft | 104 kts | 192° |
| 2026-05-08 07:41 | 55.65313 | 9.74610 | 3959 ft | 104 kts | 192° |
| 2026-05-08 07:41 | 55.64612 | 9.74228 | 3958 ft | 105 kts | 192° |
| 2026-05-08 07:41 | 55.63922 | 9.73844 | 3957 ft | 105 kts | 192° |
| 2026-05-08 07:41 | 55.63223 | 9.73452 | 3958 ft | 105 kts | 191° |
| 2026-05-08 07:42 | 55.62510 | 9.73250 | 3960 ft | 101 kts | 167° |
| 2026-05-08 07:42 | 55.61829 | 9.73468 | 3957 ft | 100 kts | 162° |
| 2026-05-08 07:42 | 55.61138 | 9.73732 | 3955 ft | 101 kts | 162° |
| 2026-05-08 07:42 | 55.60453 | 9.74000 | 3954 ft | 101 kts | 162° |
| 2026-05-08 07:43 | 55.59771 | 9.74264 | 3955 ft | 101 kts | 162° |
| 2026-05-08 07:43 | 55.59079 | 9.74534 | 3956 ft | 101 kts | 162° |
| 2026-05-08 07:43 | 55.58398 | 9.74796 | 3956 ft | 101 kts | 162° |
| 2026-05-08 07:43 | 55.57706 | 9.75061 | 3957 ft | 101 kts | 162° |
| 2026-05-08 07:44 | 55.57015 | 9.75324 | 3956 ft | 101 kts | 162° |
| 2026-05-08 07:44 | 55.56323 | 9.75594 | 3957 ft | 101 kts | 162° |
| 2026-05-08 07:44 | 55.55636 | 9.75866 | 3958 ft | 101 kts | 162° |
| 2026-05-08 07:44 | 55.54953 | 9.76139 | 3958 ft | 102 kts | 162° |
| 2026-05-08 07:45 | 55.54259 | 9.76410 | 3957 ft | 101 kts | 162° |
| 2026-05-08 07:45 | 55.53563 | 9.76676 | 3959 ft | 101 kts | 162° |
| 2026-05-08 07:45 | 55.52871 | 9.76935 | 3958 ft | 101 kts | 162° |
| 2026-05-08 07:45 | 55.52239 | 9.77407 | 3957 ft | 98 kts | 143° |
| 2026-05-08 07:46 | 55.51684 | 9.78074 | 3958 ft | 97 kts | 140° |
| 2026-05-08 07:46 | 55.51128 | 9.78766 | 3958 ft | 98 kts | 140° |
| 2026-05-08 07:46 | 55.50656 | 9.79608 | 3960 ft | 96 kts | 124° |
| 2026-05-08 07:46 | 55.50251 | 9.80554 | 3960 ft | 96 kts | 123° |
| 2026-05-08 07:47 | 55.49853 | 9.81500 | 3960 ft | 96 kts | 123° |
| 2026-05-08 07:47 | 55.49454 | 9.82457 | 3957 ft | 96 kts | 123° |
| 2026-05-08 07:47 | 55.49058 | 9.83415 | 3959 ft | 96 kts | 123° |
| 2026-05-08 07:47 | 55.48665 | 9.84365 | 3959 ft | 96 kts | 123° |
| 2026-05-08 07:48 | 55.48266 | 9.85315 | 3958 ft | 96 kts | 123° |
| 2026-05-08 07:48 | 55.47869 | 9.86265 | 3957 ft | 96 kts | 121° |
| 2026-05-08 07:48 | 55.47503 | 9.87256 | 3956 ft | 96 kts | 119° |
| 2026-05-08 07:48 | 55.47145 | 9.88248 | 3956 ft | 95 kts | 118° |
| 2026-05-08 07:49 | 55.46833 | 9.89280 | 3957 ft | 95 kts | 114° |
| 2026-05-08 07:49 | 55.46520 | 9.90362 | 3870 ft | 103 kts | 114° |
| 2026-05-08 07:49 | 55.46187 | 9.91516 | 3752 ft | 108 kts | 114° |
| 2026-05-08 07:49 | 55.45844 | 9.92701 | 3630 ft | 110 kts | 115° |
| 2026-05-08 07:50 | 55.45490 | 9.93912 | 3503 ft | 112 kts | 115° |
| 2026-05-08 07:50 | 55.45131 | 9.95139 | 3376 ft | 112 kts | 115° |
| 2026-05-08 07:50 | 55.44775 | 9.96355 | 3249 ft | 113 kts | 115° |
| 2026-05-08 07:50 | 55.44416 | 9.97586 | 3123 ft | 113 kts | 115° |
| 2026-05-08 07:51 | 55.44057 | 9.98817 | 2993 ft | 112 kts | 115° |
| 2026-05-08 07:51 | 55.43702 | 10.00034 | 2863 ft | 112 kts | 115° |
| 2026-05-08 07:51 | 55.43377 | 10.01220 | 2873 ft | 103 kts | 105° |
| 2026-05-08 07:51 | 55.43385 | 10.02440 | 2883 ft | 99 kts | 82° |
| 2026-05-08 07:52 | 55.43494 | 10.03630 | 2883 ft | 97 kts | 81° |
| 2026-05-08 07:52 | 55.43608 | 10.04792 | 2880 ft | 96 kts | 80° |
| 2026-05-08 07:52 | 55.43722 | 10.05950 | 2880 ft | 96 kts | 80° |
| 2026-05-08 07:52 | 55.43838 | 10.07118 | 2880 ft | 95 kts | 80° |
| 2026-05-08 07:53 | 55.43952 | 10.08261 | 2881 ft | 95 kts | 80° |
| 2026-05-08 07:53 | 55.44067 | 10.09420 | 2882 ft | 95 kts | 80° |
| 2026-05-08 07:53 | 55.44181 | 10.10591 | 2790 ft | 102 kts | 81° |
| 2026-05-08 07:53 | 55.44304 | 10.11861 | 2666 ft | 108 kts | 81° |
| 2026-05-08 07:54 | 55.44435 | 10.13188 | 2541 ft | 110 kts | 81° |
| 2026-05-08 07:54 | 55.44567 | 10.14517 | 2417 ft | 111 kts | 81° |
| 2026-05-08 07:54 | 55.44702 | 10.15871 | 2289 ft | 111 kts | 81° |
| 2026-05-08 07:54 | 55.44835 | 10.17199 | 2163 ft | 111 kts | 81° |
| 2026-05-08 07:55 | 55.44968 | 10.18547 | 2032 ft | 109 kts | 81° |
| 2026-05-08 07:55 | 55.45096 | 10.19837 | 1901 ft | 107 kts | 81° |
| 2026-05-08 07:55 | 55.45224 | 10.21123 | 1771 ft | 105 kts | 81° |
| 2026-05-08 07:55 | 55.45348 | 10.22396 | 1644 ft | 105 kts | 81° |
| 2026-05-08 07:56 | 55.45457 | 10.23648 | 1490 ft | 103 kts | 84° |
| 2026-05-08 07:56 | 55.45539 | 10.24916 | 1250 ft | 99 kts | 83° |
| 2026-05-08 07:56 | 55.45636 | 10.25992 | 1142 ft | 84 kts | 80° |
| 2026-05-08 07:56 | 55.45800 | 10.26974 | 939 ft | 84 kts | 72° |
| 2026-05-08 07:57 | 55.46006 | 10.27894 | 769 ft | 80 kts | 70° |
| 2026-05-08 07:57 | 55.46237 | 10.28769 | 615 ft | 72 kts | 65° |
| 2026-05-08 07:57 | 55.46473 | 10.29500 | 453 ft | 67 kts | 61° |
| 2026-05-08 07:57 | 55.46695 | 10.30177 | 309 ft | 62 kts | 67° |
| 2026-05-08 07:58 | 55.46910 | 10.30827 | 174 ft | 58 kts | 60° |
| 2026-05-08 07:58 | 55.47113 | 10.31416 | 70 ft | 54 kts | 60° |
| 2026-05-08 07:58 | 55.47270 | 10.31914 | 52 ft | 39 kts | 60° |
| 2026-05-08 07:58 | 55.47392 | 10.32302 | 55 ft | 33 kts | 63° |
| 2026-05-08 07:59 | 55.47454 | 10.32605 | 57 ft | 17 kts | 135° |
| 2026-05-08 07:59 | 55.47433 | 10.32656 | 57 ft | 4 kts | 102° |
| 2026-05-08 07:59 | 55.47431 | 10.32664 | 57 ft | 2 kts | 137° |
| 2026-05-08 07:59 | 55.47359 | 10.32770 | 57 ft | 16 kts | 124° |
| 2026-05-08 08:00 | 55.47288 | 10.32724 | 57 ft | 17 kts | 248° |
| 2026-05-08 08:00 | 55.47224 | 10.32715 | 57 ft | 9 kts | 147° |
| 2026-05-08 08:00 | 55.47188 | 10.32695 | 57 ft | 0 kts | 249° |